createdAt,value
2018-06-21T00:00:42.528Z,71.58
2018-06-21T00:01:42.521Z,71.58
2018-06-21T00:02:42.521Z,71.48
2018-06-21T00:03:42.516Z,71.48
2018-06-21T00:04:42.499Z,71.96
2018-06-21T00:05:42.494Z,71.96
2018-06-21T00:06:42.504Z,72.06
2018-06-21T00:07:42.488Z,71.96
2018-06-21T00:08:42.472Z,71.67
2018-06-21T00:09:42.460Z,72.25
2018-06-21T00:10:42.446Z,71.87
2018-06-21T00:11:42.465Z,72.06
2018-06-21T00:12:42.454Z,72.06
2018-06-21T00:13:42.431Z,72.16
2018-06-21T00:14:42.424Z,71.58
2018-06-21T00:15:42.411Z,71.96
2018-06-21T00:16:42.446Z,71.87
2018-06-21T00:17:42.409Z,71.77
2018-06-21T00:18:42.457Z,71.96
2018-06-21T00:19:42.384Z,72.25
2018-06-21T00:20:42.387Z,71.29
2018-06-21T00:21:42.377Z,71.58
2018-06-21T00:22:42.373Z,71.58
2018-06-21T00:23:42.362Z,71.29
2018-06-21T00:24:42.349Z,71.48
2018-06-21T00:25:42.337Z,71.29
2018-06-21T00:26:42.333Z,71.39
2018-06-21T00:27:42.459Z,71.77
2018-06-21T00:28:42.321Z,71.19
2018-06-21T00:29:42.307Z,71.67
2018-06-21T00:30:42.306Z,71.39
2018-06-21T00:31:42.302Z,71.58
2018-06-21T00:32:42.279Z,71.67
2018-06-21T00:33:42.316Z,71.39
2018-06-21T00:34:42.275Z,71.29
2018-06-21T00:35:42.287Z,71.58
2018-06-21T00:36:42.261Z,71.48
2018-06-21T00:37:42.289Z,71.48
2018-06-21T00:38:42.238Z,71.58
2018-06-21T00:39:42.236Z,71.39
2018-06-21T00:40:42.249Z,71.48
2018-06-21T00:41:42.213Z,71.19
2018-06-21T00:42:42.242Z,71.77
2018-06-21T00:43:42.198Z,71.39
2018-06-21T00:44:42.188Z,71.29
2018-06-21T00:45:42.185Z,71.48
2018-06-21T00:46:42.194Z,71.67
2018-06-21T00:47:42.158Z,71.10
2018-06-21T00:48:42.163Z,71.48
2018-06-21T00:49:42.165Z,71.39
2018-06-21T00:50:42.201Z,71.48
2018-06-21T00:51:42.147Z,71.67
2018-06-21T00:52:42.125Z,71.64
2018-06-21T00:53:42.122Z,71.39
2018-06-21T00:54:42.109Z,71.16
2018-06-21T00:55:42.099Z,71.93
2018-06-21T00:56:42.107Z,71.73
2018-06-21T00:57:42.086Z,72.22
2018-06-21T00:58:42.075Z,72.22
2018-06-21T00:59:42.067Z,72.12
2018-06-21T01:00:42.075Z,72.60
2018-06-21T01:01:42.089Z,72.50
2018-06-21T01:02:42.060Z,72.41
2018-06-21T01:03:42.044Z,72.69
2018-06-21T01:04:42.099Z,72.79
2018-06-21T01:05:42.032Z,72.69
2018-06-21T01:06:42.053Z,72.89
2018-06-21T01:07:42.010Z,72.99
2018-06-21T01:08:42.002Z,72.89
2018-06-21T01:09:41.996Z,72.99
2018-06-21T01:10:41.986Z,73.18
2018-06-21T01:11:42.029Z,73.18
2018-06-21T01:12:41.969Z,72.60
2018-06-21T01:13:41.956Z,72.69
2018-06-21T01:14:41.963Z,73.08
2018-06-21T01:15:41.958Z,72.99
2018-06-21T01:16:41.981Z,73.27
2018-06-21T01:17:41.960Z,73.27
2018-06-21T01:18:41.924Z,73.46
2018-06-21T01:19:41.918Z,73.94
2018-06-21T01:20:41.912Z,73.66
2018-06-21T01:21:41.897Z,73.85
2018-06-21T01:22:42.026Z,73.81
2018-06-21T01:23:41.889Z,73.66
2018-06-21T01:24:41.871Z,73.75
2018-06-21T01:25:41.864Z,73.56
2018-06-21T01:26:41.843Z,73.56
2018-06-21T01:27:41.845Z,74.29
2018-06-21T01:28:41.845Z,74.13
2018-06-21T01:29:41.840Z,74.04
2018-06-21T01:30:41.967Z,73.85
2018-06-21T01:31:41.808Z,73.75
2018-06-21T01:32:41.803Z,74.04
2018-06-21T01:33:41.799Z,73.37
2018-06-21T01:34:41.797Z,73.56
2018-06-21T01:35:41.784Z,73.56
2018-06-21T01:36:41.784Z,73.37
2018-06-21T01:37:41.762Z,73.75
2018-06-21T01:38:41.757Z,73.56
2018-06-21T01:39:41.750Z,73.66
2018-06-21T01:40:41.734Z,73.37
2018-06-21T01:41:41.782Z,73.56
2018-06-21T01:42:41.718Z,74.04
2018-06-21T01:43:41.725Z,73.94
2018-06-21T01:44:41.703Z,73.94
2018-06-21T01:45:41.699Z,74.33
2018-06-21T01:46:41.694Z,73.75
2018-06-21T01:47:41.711Z,73.94
2018-06-21T01:48:41.676Z,74.04
2018-06-21T01:49:41.656Z,74.13
2018-06-21T01:50:41.654Z,73.85
2018-06-21T01:51:41.649Z,74.33
2018-06-21T01:52:41.670Z,74.52
2018-06-21T01:53:41.630Z,74.04
2018-06-21T01:54:41.616Z,74.23
2018-06-21T01:55:41.630Z,74.01
2018-06-21T01:56:41.606Z,74.29
2018-06-21T01:57:41.659Z,74.19
2018-06-21T01:58:41.585Z,74.01
2018-06-21T01:59:41.579Z,74.33
2018-06-21T02:00:41.563Z,74.13
2018-06-21T02:01:41.564Z,74.29
2018-06-21T02:02:41.571Z,74.10
2018-06-21T02:03:41.552Z,74.39
2018-06-21T02:04:41.550Z,74.19
2018-06-21T02:05:41.527Z,74.39
2018-06-21T02:06:41.515Z,74.58
2018-06-21T02:07:41.521Z,74.58
2018-06-21T02:08:41.545Z,74.19
2018-06-21T02:09:41.526Z,74.10
2018-06-21T02:10:41.504Z,74.19
2018-06-21T02:11:41.485Z,74.01
2018-06-21T02:12:41.474Z,73.91
2018-06-21T02:13:41.467Z,74.58
2018-06-21T02:14:41.512Z,74.10
2018-06-21T02:15:41.455Z,74.77
2018-06-21T02:16:41.463Z,74.01
2018-06-21T02:17:41.452Z,73.72
2018-06-21T02:18:41.477Z,74.01
2018-06-21T02:19:41.465Z,74.10
2018-06-21T02:20:41.467Z,74.19
2018-06-21T02:21:41.443Z,74.29
2018-06-21T02:22:41.444Z,74.48
2018-06-21T02:23:41.422Z,74.68
2018-06-21T02:24:41.449Z,74.48
2018-06-21T02:25:41.432Z,74.68
2018-06-21T02:26:41.409Z,74.96
2018-06-21T02:27:41.406Z,74.93
2018-06-21T02:28:41.382Z,75.21
2018-06-21T02:29:41.383Z,75.70
2018-06-21T02:30:41.404Z,75.45
2018-06-21T02:31:41.360Z,75.40
2018-06-21T02:32:41.363Z,75.31
2018-06-21T02:33:41.348Z,75.25
2018-06-21T02:34:41.345Z,75.45
2018-06-21T02:35:41.347Z,75.40
2018-06-21T02:36:41.324Z,75.92
2018-06-21T02:37:41.325Z,75.35
2018-06-21T02:38:41.304Z,75.54
2018-06-21T02:39:41.287Z,75.15
2018-06-21T02:40:41.307Z,74.96
2018-06-21T02:41:41.269Z,75.63
2018-06-21T02:42:41.267Z,74.96
2018-06-21T02:43:41.268Z,75.15
2018-06-21T02:44:41.266Z,75.25
2018-06-21T02:45:41.262Z,75.63
2018-06-21T02:46:41.225Z,75.25
2018-06-21T02:47:41.224Z,74.77
2018-06-21T02:48:41.216Z,75.25
2018-06-21T02:49:41.205Z,75.25
2018-06-21T02:50:41.228Z,74.96
2018-06-21T02:51:41.190Z,75.06
2018-06-21T02:52:41.209Z,75.06
2018-06-21T02:53:41.176Z,74.68
2018-06-21T02:54:41.171Z,74.96
2018-06-21T02:55:41.157Z,75.35
2018-06-21T02:56:41.228Z,75.15
2018-06-21T02:57:41.135Z,75.25
2018-06-21T02:58:41.132Z,74.96
2018-06-21T02:59:41.118Z,75.06
2018-06-21T03:00:41.205Z,75.02
2018-06-21T03:01:41.118Z,74.77
2018-06-21T03:02:41.157Z,75.70
2018-06-21T03:03:41.091Z,75.02
2018-06-21T03:04:41.208Z,75.06
2018-06-21T03:05:41.068Z,74.87
2018-06-21T03:06:41.061Z,75.02
2018-06-21T03:07:41.069Z,74.64
2018-06-21T03:08:41.123Z,74.93
2018-06-21T03:09:41.048Z,74.44
2018-06-21T03:10:41.031Z,74.54
2018-06-21T03:11:41.023Z,74.44
2018-06-21T03:12:41.010Z,75.12
2018-06-21T03:13:41.000Z,74.77
2018-06-21T03:14:41.039Z,74.54
2018-06-21T03:15:40.987Z,74.93
2018-06-21T03:16:40.983Z,74.87
2018-06-21T03:17:40.962Z,74.54
2018-06-21T03:18:40.991Z,74.35
2018-06-21T03:19:40.944Z,74.54
2018-06-21T03:20:40.920Z,74.35
2018-06-21T03:21:40.912Z,74.58
2018-06-21T03:22:40.877Z,75.02
2018-06-21T03:23:40.863Z,75.12
2018-06-21T03:24:40.887Z,74.48
2018-06-21T03:25:40.846Z,74.68
2018-06-21T03:26:40.879Z,74.68
2018-06-21T03:27:40.834Z,74.68
2018-06-21T03:28:40.870Z,74.64
2018-06-21T03:29:40.863Z,74.77
2018-06-21T03:30:41.170Z,74.58
2018-06-21T03:31:40.866Z,74.77
2018-06-21T03:32:40.827Z,74.96
2018-06-21T03:33:40.834Z,75.54
2018-06-21T03:34:40.765Z,75.70
2018-06-21T03:35:40.763Z,75.31
2018-06-21T03:36:40.792Z,75.31
2018-06-21T03:37:40.756Z,75.79
2018-06-21T03:38:40.758Z,76.46
2018-06-21T03:39:40.731Z,76.27
2018-06-21T03:40:40.723Z,75.40
2018-06-21T03:41:40.742Z,75.79
2018-06-21T03:42:40.699Z,75.89
2018-06-21T03:43:40.724Z,76.17
2018-06-21T03:44:40.675Z,75.40
2018-06-21T03:45:40.685Z,75.70
2018-06-21T03:46:40.673Z,76.07
2018-06-21T03:47:40.764Z,75.98
2018-06-21T03:48:40.675Z,75.89
2018-06-21T03:49:40.646Z,76.75
2018-06-21T03:50:40.640Z,76.75
2018-06-21T03:51:40.624Z,76.56
2018-06-21T03:52:40.846Z,76.56
2018-06-21T03:53:40.604Z,76.56
2018-06-21T03:54:40.843Z,76.75
2018-06-21T03:55:40.589Z,76.07
2018-06-21T03:56:40.581Z,75.89
2018-06-21T03:57:40.567Z,76.37
2018-06-21T03:58:40.611Z,75.79
2018-06-21T03:59:40.563Z,75.89
2018-06-21T04:00:40.555Z,76.46
2018-06-21T04:01:40.548Z,76.07
2018-06-21T04:02:40.543Z,76.84
2018-06-21T04:03:40.554Z,76.94
2018-06-21T04:04:40.510Z,76.56
2018-06-21T04:05:40.507Z,76.65
2018-06-21T04:06:40.499Z,76.07
2018-06-21T04:07:40.485Z,76.27
2018-06-21T04:08:40.512Z,75.98
2018-06-21T04:09:40.473Z,75.31
2018-06-21T04:10:40.463Z,75.50
2018-06-21T04:11:40.455Z,75.50
2018-06-21T04:12:40.454Z,76.02
2018-06-21T04:13:40.442Z,76.07
2018-06-21T04:14:40.454Z,75.89
2018-06-21T04:15:40.550Z,76.12
2018-06-21T04:16:40.409Z,75.89
2018-06-21T04:17:40.400Z,75.98
2018-06-21T04:18:40.391Z,75.89
2018-06-21T04:19:40.389Z,76.02
2018-06-21T04:20:40.373Z,75.89
2018-06-21T04:21:40.398Z,76.02
2018-06-21T04:22:40.352Z,76.50
2018-06-21T04:23:40.347Z,75.82
2018-06-21T04:24:40.341Z,76.50
2018-06-21T04:25:40.354Z,75.54
2018-06-21T04:26:40.349Z,76.59
2018-06-21T04:27:40.303Z,76.88
2018-06-21T04:28:40.433Z,75.73
2018-06-21T04:29:40.295Z,76.31
2018-06-21T04:30:40.299Z,75.73
2018-06-21T04:31:40.280Z,76.21
2018-06-21T04:32:40.274Z,76.88
2018-06-21T04:33:40.265Z,77.08
2018-06-21T04:34:40.263Z,76.50
2018-06-21T04:35:40.242Z,76.88
2018-06-21T04:36:40.234Z,77.26
2018-06-21T04:37:40.227Z,77.94
2018-06-21T04:38:40.220Z,78.80
2018-06-21T04:39:40.232Z,78.70
2018-06-21T04:40:40.196Z,77.94
2018-06-21T04:41:40.236Z,77.84
2018-06-21T04:42:40.186Z,78.99
2018-06-21T04:43:40.199Z,79.47
2018-06-21T04:44:40.182Z,80.63
2018-06-21T04:45:40.169Z,80.53
2018-06-21T04:46:40.151Z,81.78
2018-06-21T04:47:40.139Z,81.78
2018-06-21T04:48:40.137Z,81.78
2018-06-21T04:49:40.193Z,81.68
2018-06-21T04:50:40.120Z,82.45
2018-06-21T04:51:40.144Z,82.16
2018-06-21T04:52:40.188Z,82.93
2018-06-21T04:53:40.100Z,83.22
2018-06-21T04:54:40.105Z,83.22
2018-06-21T04:55:40.128Z,84.08
2018-06-21T04:56:40.085Z,83.70
2018-06-21T04:57:40.073Z,83.70
2018-06-21T04:58:40.071Z,84.08
2018-06-21T04:59:40.049Z,84.08
2018-06-21T05:00:40.084Z,83.80
2018-06-21T05:01:40.042Z,84.27
2018-06-21T05:02:40.059Z,84.56
2018-06-21T05:03:40.020Z,84.85
2018-06-21T05:04:40.037Z,84.37
2018-06-21T05:05:40.200Z,84.08
2018-06-21T05:06:40.006Z,84.85
2018-06-21T05:07:39.985Z,85.04
2018-06-21T05:08:39.982Z,85.33
2018-06-21T05:09:39.974Z,85.04
2018-06-21T05:10:39.977Z,85.33
2018-06-21T05:11:39.972Z,86.10
2018-06-21T05:12:39.938Z,85.52
2018-06-21T05:13:39.934Z,86.10
2018-06-21T05:14:39.934Z,85.52
2018-06-21T05:15:40.082Z,86.19
2018-06-21T05:16:39.939Z,86.10
2018-06-21T05:17:39.943Z,86.00
2018-06-21T05:18:39.888Z,85.86
2018-06-21T05:19:39.893Z,85.96
2018-06-21T05:20:39.872Z,86.38
2018-06-21T05:21:39.881Z,86.19
2018-06-21T05:22:40.055Z,86.25
2018-06-21T05:23:41.686Z,86.29
2018-06-21T05:24:40.267Z,86.34
2018-06-21T05:25:39.827Z,86.25
2018-06-21T05:26:39.819Z,86.34
2018-06-21T05:27:39.826Z,86.82
2018-06-21T05:28:39.848Z,86.82
2018-06-21T05:29:39.801Z,87.35
2018-06-21T05:30:39.798Z,86.82
2018-06-21T05:31:39.800Z,87.25
2018-06-21T05:32:39.957Z,87.01
2018-06-21T05:33:39.769Z,86.72
2018-06-21T05:34:40.055Z,87.30
2018-06-21T05:35:39.745Z,87.49
2018-06-21T05:36:40.702Z,87.11
2018-06-21T05:37:39.740Z,87.40
2018-06-21T05:38:39.769Z,87.78
2018-06-21T05:39:39.755Z,87.59
2018-06-21T05:40:39.691Z,87.59
2018-06-21T05:41:40.701Z,87.49
2018-06-21T05:42:39.710Z,87.68
2018-06-21T05:43:39.748Z,87.78
2018-06-21T05:44:39.668Z,88.45
2018-06-21T05:45:40.238Z,88.17
2018-06-21T05:46:40.092Z,88.17
2018-06-21T05:47:39.637Z,88.07
2018-06-21T05:48:39.698Z,87.78
2018-06-21T05:49:39.635Z,88.35
2018-06-21T05:50:39.627Z,88.74
2018-06-21T05:51:39.628Z,89.51
2018-06-21T05:53:15.005Z,89.61
2018-06-21T05:53:39.598Z,89.99
2018-06-21T05:54:39.678Z,90.18
2018-06-21T05:55:39.592Z,90.56
2018-06-21T05:56:39.637Z,90.28
2018-06-21T05:57:39.553Z,90.37
2018-06-21T05:58:39.547Z,90.18
2018-06-21T05:59:41.282Z,90.52
2018-06-21T06:00:40.959Z,90.33
2018-06-21T06:01:39.510Z,90.66
2018-06-21T06:02:39.559Z,90.71
2018-06-21T06:03:39.496Z,91.42
2018-06-21T06:04:39.492Z,91.19
2018-06-21T06:05:39.618Z,91.77
2018-06-21T06:06:39.476Z,91.77
2018-06-21T06:07:39.486Z,92.44
2018-06-21T06:08:39.615Z,92.24
2018-06-21T06:09:39.453Z,92.54
2018-06-21T06:10:39.450Z,92.91
2018-06-21T06:11:39.736Z,92.72
2018-06-21T06:12:39.557Z,92.63
2018-06-21T06:13:39.414Z,92.63
2018-06-21T06:14:39.406Z,93.40
2018-06-21T06:15:39.422Z,92.34
2018-06-21T06:16:39.404Z,92.63
2018-06-21T06:17:39.463Z,93.59
2018-06-21T06:18:39.373Z,93.88
2018-06-21T06:19:39.364Z,93.97
2018-06-21T06:20:39.565Z,93.88
2018-06-21T06:21:39.361Z,93.59
2018-06-21T06:22:39.331Z,93.30
2018-06-21T06:23:39.327Z,93.11
2018-06-21T06:24:39.322Z,93.21
2018-06-21T06:25:39.325Z,93.21
2018-06-21T06:26:39.316Z,93.21
2018-06-21T06:27:39.282Z,93.21
2018-06-21T06:28:39.324Z,93.11
2018-06-21T06:29:39.265Z,92.91
2018-06-21T06:30:39.248Z,92.30
2018-06-21T06:31:39.274Z,92.20
2018-06-21T06:32:39.231Z,91.72
2018-06-21T06:33:39.234Z,92.30
2018-06-21T06:34:39.220Z,92.39
2018-06-21T06:35:39.207Z,92.01
2018-06-21T06:36:39.216Z,92.01
2018-06-21T06:37:39.190Z,91.91
2018-06-21T06:38:39.167Z,91.86
2018-06-21T06:39:39.762Z,91.39
2018-06-21T06:40:39.301Z,92.06
2018-06-21T06:41:39.157Z,91.86
2018-06-21T06:42:39.127Z,91.10
2018-06-21T06:43:39.123Z,91.86
2018-06-21T06:44:39.122Z,92.06
2018-06-21T06:45:39.095Z,91.96
2018-06-21T06:46:39.231Z,92.25
2018-06-21T06:47:39.145Z,92.25
2018-06-21T06:48:39.737Z,92.44
2018-06-21T06:49:39.069Z,92.35
2018-06-21T06:50:39.065Z,91.86
2018-06-21T06:51:39.135Z,91.86
2018-06-21T06:52:40.728Z,92.06
2018-06-21T06:53:39.022Z,92.73
2018-06-21T06:54:39.069Z,92.15
2018-06-21T06:55:39.030Z,92.06
2018-06-21T06:56:38.994Z,92.25
2018-06-21T06:57:39.270Z,92.35
2018-06-21T06:58:38.982Z,92.15
2018-06-21T06:59:39.766Z,92.35
2018-06-21T07:00:38.976Z,92.25
2018-06-21T07:01:38.965Z,91.77
2018-06-21T07:02:39.755Z,91.53
2018-06-21T07:03:38.928Z,90.67
2018-06-21T07:04:38.905Z,90.39
2018-06-21T07:05:40.778Z,91.25
2018-06-21T07:06:38.893Z,91.15
2018-06-21T07:07:39.768Z,90.39
2018-06-21T07:08:38.876Z,91.25
2018-06-21T07:09:39.152Z,91.72
2018-06-21T07:10:39.098Z,91.72
2018-06-21T07:11:39.071Z,92.21
2018-06-21T07:12:38.845Z,92.21
2018-06-21T07:13:38.975Z,91.72
2018-06-21T07:14:39.271Z,91.44
2018-06-21T07:15:38.827Z,91.82
2018-06-21T07:16:38.801Z,92.87
2018-06-21T07:17:38.843Z,92.11
2018-06-21T07:18:39.050Z,92.06
2018-06-21T07:19:38.814Z,92.11
2018-06-21T07:20:38.745Z,91.77
2018-06-21T07:21:38.898Z,91.25
2018-06-21T07:22:39.251Z,91.15
2018-06-21T07:23:39.248Z,91.44
2018-06-21T07:24:38.709Z,91.25
2018-06-21T07:25:39.240Z,91.34
2018-06-21T07:26:39.375Z,91.63
2018-06-21T07:27:39.257Z,91.34
2018-06-21T07:28:38.688Z,90.48
2018-06-21T07:29:38.654Z,90.19
2018-06-21T07:30:38.730Z,90.96
2018-06-21T07:31:38.638Z,91.25
2018-06-21T07:32:41.276Z,90.77
2018-06-21T07:33:38.677Z,90.86
2018-06-21T07:34:40.765Z,91.05
2018-06-21T07:35:38.633Z,91.15
2018-06-21T07:36:39.751Z,90.86
2018-06-21T07:37:40.262Z,90.48
2018-06-21T07:38:38.582Z,90.77
2018-06-21T07:39:39.259Z,91.34
2018-06-21T07:40:38.540Z,91.53
2018-06-21T07:41:38.555Z,90.86
2018-06-21T07:42:38.523Z,90.86
2018-06-21T07:43:39.455Z,91.44
2018-06-21T07:44:39.201Z,90.67
2018-06-21T07:45:38.624Z,91.15
2018-06-21T07:46:38.532Z,91.05
2018-06-21T07:47:38.479Z,91.44
2018-06-21T07:48:38.490Z,91.25
2018-06-21T07:49:40.503Z,91.25
2018-06-21T07:50:38.440Z,90.86
2018-06-21T07:51:38.599Z,90.96
2018-06-21T07:52:38.441Z,91.15
2018-06-21T07:53:38.417Z,90.96
2018-06-21T07:54:39.121Z,91.05
2018-06-21T07:55:38.396Z,91.63
2018-06-21T07:56:38.390Z,91.63
2018-06-21T07:57:38.377Z,91.05
2018-06-21T07:58:38.410Z,91.34
2018-06-21T07:59:38.350Z,91.25
2018-06-21T08:00:38.349Z,91.63
2018-06-21T08:01:38.343Z,91.34
2018-06-21T08:02:38.319Z,91.63
2018-06-21T08:03:38.421Z,91.15
2018-06-21T08:04:38.305Z,90.39
2018-06-21T08:05:38.293Z,91.15
2018-06-21T08:06:38.301Z,91.44
2018-06-21T08:07:38.266Z,90.86
2018-06-21T08:08:38.254Z,91.19
2018-06-21T08:09:38.244Z,91.49
2018-06-21T08:10:38.319Z,91.19
2018-06-21T08:11:38.238Z,91.19
2018-06-21T08:12:38.231Z,91.19
2018-06-21T08:13:38.216Z,91.39
2018-06-21T08:14:38.204Z,91.29
2018-06-21T08:15:38.190Z,91.10
2018-06-21T08:16:38.348Z,91.58
2018-06-21T08:17:38.350Z,90.14
2018-06-21T08:18:38.188Z,89.47
2018-06-21T08:19:38.158Z,90.33
2018-06-21T08:20:38.153Z,89.57
2018-06-21T08:21:38.147Z,89.76
2018-06-21T08:22:38.151Z,89.18
2018-06-21T08:23:38.111Z,89.28
2018-06-21T08:24:38.099Z,88.80
2018-06-21T08:25:38.103Z,89.28
2018-06-21T08:26:39.808Z,89.18
2018-06-21T08:29:43.803Z,87.17
2018-06-21T08:30:42.689Z,86.50
2018-06-21T08:31:42.939Z,86.41
2018-06-21T08:32:43.578Z,86.41
2018-06-21T08:33:42.689Z,87.08
2018-06-21T08:34:42.648Z,87.17
2018-06-21T08:35:42.643Z,87.27
2018-06-21T08:36:42.635Z,86.69
2018-06-21T08:37:42.656Z,86.79
2018-06-21T08:38:43.668Z,87.17
2018-06-21T08:39:42.659Z,87.08
2018-06-21T08:40:42.593Z,86.16
2018-06-21T08:41:42.585Z,85.35
2018-06-21T08:42:42.696Z,85.35
2018-06-21T08:43:42.606Z,85.83
2018-06-21T08:44:42.564Z,85.88
2018-06-21T08:45:42.660Z,86.54
2018-06-21T08:46:42.538Z,85.30
2018-06-21T08:47:42.552Z,85.21
2018-06-21T08:48:42.600Z,85.30
2018-06-21T08:49:42.696Z,84.58
2018-06-21T08:50:42.524Z,85.06
2018-06-21T08:51:42.489Z,85.54
2018-06-21T08:52:42.507Z,84.78
2018-06-21T08:53:42.479Z,84.39
2018-06-21T08:54:42.486Z,85.06
2018-06-21T08:55:42.607Z,85.16
2018-06-21T08:56:44.092Z,84.97
2018-06-21T08:58:28.412Z,84.68
2018-06-21T08:58:42.452Z,84.11
2018-06-21T08:59:53.210Z,85.16
2018-06-21T09:00:42.394Z,84.30
2018-06-21T09:01:42.461Z,83.15
2018-06-21T09:02:43.119Z,81.33
2018-06-21T09:03:43.164Z,82.19
2018-06-21T09:04:42.366Z,81.81
2018-06-21T09:05:42.356Z,81.23
2018-06-21T09:06:42.392Z,81.04
2018-06-21T09:07:42.348Z,81.71
2018-06-21T09:08:42.336Z,81.43
2018-06-21T09:09:42.370Z,80.76
2018-06-21T09:10:42.324Z,81.04
2018-06-21T09:11:42.301Z,81.46
2018-06-21T09:12:42.293Z,81.08
2018-06-21T09:13:42.306Z,80.41
2018-06-21T09:14:42.428Z,80.89
2018-06-21T09:15:42.253Z,80.93
2018-06-21T09:16:42.404Z,79.59
2018-06-21T09:17:44.122Z,79.72
2018-06-21T09:18:42.221Z,79.53
2018-06-21T09:19:42.310Z,79.24
2018-06-21T09:20:42.276Z,78.09
2018-06-21T09:21:42.592Z,78.77
2018-06-21T09:22:42.340Z,79.34
2018-06-21T09:23:42.189Z,78.19
2018-06-21T09:24:42.187Z,77.90
2018-06-21T09:25:42.184Z,77.71
2018-06-21T09:26:42.168Z,77.33
2018-06-21T09:27:42.164Z,77.71
2018-06-21T09:28:42.187Z,76.56
2018-06-21T09:29:42.150Z,76.27
2018-06-21T09:30:42.220Z,75.50
2018-06-21T09:31:42.137Z,75.65
2018-06-21T09:32:42.163Z,76.04
2018-06-21T09:33:42.122Z,76.71
2018-06-21T09:34:42.115Z,76.52
2018-06-21T09:35:42.104Z,77.86
2018-06-21T09:36:42.113Z,77.29
2018-06-21T09:37:42.622Z,76.71
2018-06-21T09:38:43.615Z,76.48
2018-06-21T09:39:42.628Z,76.19
2018-06-21T09:40:42.718Z,76.10
2018-06-21T09:41:42.561Z,76.57
2018-06-21T09:42:42.708Z,75.81
2018-06-21T09:43:50.299Z,75.90
2018-06-21T09:44:42.076Z,75.90
2018-06-21T09:45:42.039Z,75.77
2018-06-21T09:46:42.032Z,76.44
2018-06-21T09:47:42.005Z,76.73
2018-06-21T09:48:42.014Z,76.92
2018-06-21T09:49:42.038Z,77.21
2018-06-21T09:50:42.005Z,77.59
2018-06-21T09:51:42.657Z,77.88
2018-06-21T09:52:42.168Z,77.40
2018-06-21T09:53:41.975Z,76.44
2018-06-21T09:54:42.041Z,76.44
2018-06-21T09:55:41.950Z,76.60
2018-06-21T09:56:42.486Z,77.17
2018-06-21T09:57:41.980Z,78.13
2018-06-21T09:58:42.354Z,78.80
2018-06-21T09:59:41.921Z,78.80
2018-06-21T10:00:41.941Z,79.81
2018-06-21T10:01:41.898Z,80.00
2018-06-21T10:02:41.863Z,80.19
2018-06-21T10:03:41.853Z,80.00
2018-06-21T10:04:41.893Z,80.38
2018-06-21T10:05:41.856Z,81.44
2018-06-21T10:06:42.170Z,81.77
2018-06-21T10:07:41.884Z,81.54
2018-06-21T10:08:42.012Z,81.67
2018-06-21T10:09:41.805Z,81.67
2018-06-21T10:10:41.790Z,82.15
2018-06-21T10:11:41.915Z,81.48
2018-06-21T10:12:43.646Z,80.43
2018-06-21T10:13:41.756Z,80.24
2018-06-21T10:14:41.749Z,80.43
2018-06-21T10:15:42.103Z,80.81
2018-06-21T10:16:41.767Z,80.62
2018-06-21T10:17:41.736Z,80.33
2018-06-21T10:18:41.704Z,80.18
2018-06-21T10:19:41.686Z,80.85
2018-06-21T10:20:41.707Z,79.41
2018-06-21T10:21:41.735Z,78.84
2018-06-21T10:22:41.685Z,79.32
2018-06-21T10:23:41.663Z,79.16
2018-06-21T10:24:41.651Z,76.86
2018-06-21T10:25:41.650Z,76.96
2018-06-21T10:26:42.149Z,76.48
2018-06-21T10:27:41.630Z,76.86
2018-06-21T10:28:41.765Z,76.00
2018-06-21T10:29:41.642Z,74.08
2018-06-21T10:30:42.273Z,74.18
2018-06-21T10:31:41.591Z,72.74
2018-06-21T10:32:41.610Z,71.31
2018-06-21T10:33:41.572Z,68.62
2018-06-21T10:34:41.839Z,69.45
2018-06-21T10:35:41.564Z,70.64
2018-06-21T10:36:41.553Z,68.91
2018-06-21T10:37:41.566Z,68.18
2018-06-21T10:38:41.514Z,67.12
2018-06-21T10:39:41.524Z,67.69
2018-06-21T10:40:41.507Z,66.74
2018-06-21T10:41:41.504Z,67.16
2018-06-21T10:42:41.622Z,68.02
2018-06-21T10:43:41.489Z,66.80
2018-06-21T10:44:41.480Z,65.11
2018-06-21T10:45:41.478Z,64.95
2018-06-21T10:46:41.471Z,61.97
2018-06-21T10:47:41.753Z,61.14
2018-06-21T10:48:41.451Z,61.71
2018-06-21T10:49:41.465Z,61.23
2018-06-21T10:50:41.488Z,61.91
2018-06-21T10:51:41.476Z,60.85
2018-06-21T10:52:41.484Z,59.50
2018-06-21T10:53:41.656Z,57.58
2018-06-21T10:54:41.435Z,58.15
2018-06-21T10:55:41.435Z,59.99
2018-06-21T10:56:41.449Z,59.02
2018-06-21T10:57:41.440Z,58.92
2018-06-21T10:58:41.495Z,60.43
2018-06-21T10:59:41.421Z,60.91
2018-06-21T11:00:41.667Z,60.60
2018-06-21T11:01:42.172Z,61.65
2018-06-21T11:02:41.413Z,60.57
2018-06-21T11:03:41.699Z,61.52
2018-06-21T11:04:43.188Z,60.44
2018-06-21T11:05:41.426Z,61.02
2018-06-21T11:06:41.393Z,62.36
2018-06-21T11:07:41.388Z,62.74
2018-06-21T11:08:41.425Z,62.36
2018-06-21T11:09:41.378Z,62.19
2018-06-21T11:10:41.693Z,61.33
2018-06-21T11:11:41.367Z,60.02
2018-06-21T11:12:41.415Z,57.71
2018-06-21T11:13:41.340Z,58.22
2018-06-21T11:14:41.412Z,56.78
2018-06-21T11:15:42.173Z,56.88
2018-06-21T11:16:42.173Z,54.79
2018-06-21T11:17:41.409Z,54.02
2018-06-21T11:18:41.365Z,54.05
2018-06-21T11:19:41.346Z,54.82
2018-06-21T11:20:41.357Z,53.19
2018-06-21T11:21:41.339Z,52.63
2018-06-21T11:22:41.313Z,52.83
2018-06-21T11:23:41.314Z,51.89
2018-06-21T11:24:41.313Z,51.41
2018-06-21T11:25:41.329Z,51.02
2018-06-21T11:26:41.313Z,51.09
2018-06-21T11:27:42.302Z,50.90
2018-06-21T11:28:41.313Z,50.97
2018-06-21T11:29:41.356Z,50.40
2018-06-21T11:30:41.312Z,50.87
2018-06-21T11:31:41.347Z,51.35
2018-06-21T11:32:41.287Z,49.82
2018-06-21T11:33:41.328Z,49.24
2018-06-21T11:34:41.376Z,47.13
2018-06-21T11:35:41.296Z,47.03
2018-06-21T11:36:41.294Z,46.93
2018-06-21T11:37:41.283Z,48.30
2018-06-21T11:38:41.413Z,48.43
2018-06-21T11:39:41.285Z,47.46
2018-06-21T11:40:42.241Z,47.97
2018-06-21T11:41:41.277Z,43.92
2018-06-21T11:42:41.288Z,42.26
2018-06-21T11:43:42.217Z,41.78
2018-06-21T11:44:41.272Z,40.61
2018-06-21T11:45:41.264Z,40.58
2018-06-21T11:46:41.275Z,41.45
2018-06-21T11:47:41.256Z,40.56
2018-06-21T11:48:41.259Z,41.31
2018-06-21T11:49:41.277Z,43.43
2018-06-21T11:50:41.269Z,43.71
2018-06-21T11:51:41.314Z,43.50
2018-06-21T11:52:41.220Z,43.70
2018-06-21T11:53:41.250Z,44.65
2018-06-21T11:54:41.241Z,45.30
2018-06-21T11:55:41.722Z,44.54
2018-06-21T11:56:41.210Z,44.73
2018-06-21T11:57:41.198Z,44.63
2018-06-21T11:58:41.207Z,45.30
2018-06-21T11:59:41.191Z,45.21
2018-06-21T12:00:41.327Z,45.28
2018-06-21T12:01:41.199Z,46.14
2018-06-21T12:02:41.225Z,46.14
2018-06-21T12:03:41.160Z,45.67
2018-06-21T12:04:41.158Z,45.16
2018-06-21T12:05:41.156Z,45.45
2018-06-21T12:06:41.155Z,46.43
2018-06-21T12:07:41.131Z,46.43
2018-06-21T12:08:41.196Z,46.53
2018-06-21T12:09:41.169Z,46.62
2018-06-21T12:10:41.114Z,46.14
2018-06-21T12:11:41.124Z,46.62
2018-06-21T12:12:41.085Z,47.87
2018-06-21T12:13:41.099Z,46.34
2018-06-21T12:14:41.713Z,45.76
2018-06-21T12:15:41.067Z,45.86
2018-06-21T12:16:41.086Z,46.72
2018-06-21T12:17:41.225Z,47.58
2018-06-21T12:18:41.035Z,47.87
2018-06-21T12:19:41.035Z,47.20
2018-06-21T12:20:41.040Z,44.90
2018-06-21T12:21:41.026Z,45.00
2018-06-21T12:22:41.031Z,44.78
2018-06-21T12:23:41.012Z,45.09
2018-06-21T12:24:40.990Z,45.47
2018-06-21T12:25:40.994Z,46.24
2018-06-21T12:26:40.983Z,46.24
2018-06-21T12:27:40.956Z,46.34
2018-06-21T12:28:41.007Z,46.62
2018-06-21T12:29:40.939Z,45.47
2018-06-21T12:30:40.934Z,44.73
2018-06-21T12:31:40.929Z,44.24
2018-06-21T12:32:40.924Z,43.87
2018-06-21T12:33:40.912Z,43.19
2018-06-21T12:34:40.961Z,42.52
2018-06-21T12:35:40.891Z,41.56
2018-06-21T12:36:40.902Z,41.27
2018-06-21T12:37:40.891Z,42.04
2018-06-21T12:38:40.873Z,43.10
2018-06-21T12:39:40.866Z,43.87
2018-06-21T12:40:40.927Z,44.06
2018-06-21T12:41:40.855Z,43.67
2018-06-21T12:42:40.834Z,43.67
2018-06-21T12:43:40.863Z,40.50
2018-06-21T12:44:40.812Z,39.35
2018-06-21T12:45:40.869Z,40.02
2018-06-21T12:46:41.302Z,41.17
2018-06-21T12:47:40.781Z,41.44
2018-06-21T12:48:40.791Z,40.96
2018-06-21T12:49:40.789Z,40.96
2018-06-21T12:50:40.780Z,41.16
2018-06-21T12:51:40.816Z,39.91
2018-06-21T12:52:40.760Z,40.00
2018-06-21T12:53:41.759Z,41.44
2018-06-21T12:54:40.737Z,41.93